sensor_id;sensor_type;location;lat;lon;timestamp;P1;durP1;ratioP1;P2;durP2;ratioP2
14520;SDS011;7347;50.844;4.490;2023-06-22T07:52:34;8.65;;;5.43;;
14520;SDS011;7347;50.844;4.490;2023-06-22T07:55:01;7.47;;;5.03;;
14520;SDS011;7347;50.844;4.490;2023-06-22T07:57:28;8.82;;;5.35;;
14520;SDS011;7347;50.844;4.490;2023-06-22T07:59:58;7.38;;;5.38;;
14520;SDS011;7347;50.844;4.490;2023-06-22T08:02:25;8.82;;;5.70;;
14520;SDS011;7347;50.844;4.490;2023-06-22T08:04:52;6.28;;;4.72;;
14520;SDS011;7347;50.844;4.490;2023-06-22T08:07:20;9.25;;;5.47;;
14520;SDS011;7347;50.844;4.490;2023-06-22T08:09:47;6.40;;;4.88;;
14520;SDS011;7347;50.844;4.490;2023-06-22T08:12:15;7.70;;;5.10;;
14520;SDS011;7347;50.844;4.490;2023-06-22T08:14:42;6.97;;;5.13;;
14520;SDS011;7347;50.844;4.490;2023-06-22T08:17:11;9.02;;;5.78;;
14520;SDS011;7347;50.844;4.490;2023-06-22T08:19:39;10.68;;;5.43;;
14520;SDS011;7347;50.844;4.490;2023-06-22T08:22:06;7.57;;;5.25;;
14520;SDS011;7347;50.844;4.490;2023-06-22T08:24:34;7.88;;;5.00;;
14520;SDS011;7347;50.844;4.490;2023-06-22T08:27:01;6.85;;;4.88;;
14520;SDS011;7347;50.844;4.490;2023-06-22T08:29:28;9.20;;;5.28;;
14520;SDS011;7347;50.844;4.490;2023-06-22T08:31:55;8.15;;;5.68;;
14520;SDS011;7347;50.844;4.490;2023-06-22T08:34:22;8.57;;;5.70;;
14520;SDS011;7347;50.844;4.490;2023-06-22T08:36:50;8.38;;;5.60;;
14520;SDS011;7347;50.844;4.490;2023-06-22T08:39:17;7.82;;;5.25;;
14520;SDS011;7347;50.844;4.490;2023-06-22T08:41:46;8.40;;;5.13;;
14520;SDS011;7347;50.844;4.490;2023-06-22T08:44:13;7.32;;;5.53;;
14520;SDS011;7347;50.844;4.490;2023-06-22T08:46:40;7.63;;;5.50;;
14520;SDS011;7347;50.844;4.490;2023-06-22T08:49:07;9.20;;;5.40;;
14520;SDS011;7347;50.844;4.490;2023-06-22T08:51:34;10.32;;;6.00;;
14520;SDS011;7347;50.844;4.490;2023-06-22T08:54:01;8.40;;;5.28;;
14520;SDS011;7347;50.844;4.490;2023-06-22T08:56:28;7.70;;;4.82;;
14520;SDS011;7347;50.844;4.490;2023-06-22T08:58:57;8.50;;;4.97;;
14520;SDS011;7347;50.844;4.490;2023-06-22T09:01:23;10.35;;;5.05;;
14520;SDS011;7347;50.844;4.490;2023-06-22T09:03:50;9.15;;;5.50;;
14520;SDS011;7347;50.844;4.490;2023-06-22T09:06:22;8.02;;;4.82;;
14520;SDS011;7347;50.844;4.490;2023-06-22T09:08:49;6.70;;;4.40;;
14520;SDS011;7347;50.844;4.490;2023-06-22T09:11:16;5.63;;;4.03;;
14520;SDS011;7347;50.844;4.490;2023-06-22T09:13:43;5.72;;;4.40;;
14520;SDS011;7347;50.844;4.490;2023-06-22T09:16:12;6.15;;;3.85;;
14520;SDS011;7347;50.844;4.490;2023-06-22T09:18:39;6.03;;;4.38;;
14520;SDS011;7347;50.844;4.490;2023-06-22T09:21:07;6.32;;;4.10;;
14520;SDS011;7347;50.844;4.490;2023-06-22T09:23:34;8.20;;;4.60;;
14520;SDS011;7347;50.844;4.490;2023-06-22T09:26:00;7.28;;;4.13;;
14520;SDS011;7347;50.844;4.490;2023-06-22T09:28:28;10.23;;;5.03;;
14520;SDS011;7347;50.844;4.490;2023-06-22T09:30:54;6.88;;;5.03;;
14520;SDS011;7347;50.844;4.490;2023-06-22T09:33:25;9.50;;;5.00;;
14520;SDS011;7347;50.844;4.490;2023-06-22T09:35:52;8.30;;;5.38;;
14520;SDS011;7347;50.844;4.490;2023-06-22T09:38:19;8.37;;;4.80;;
14520;SDS011;7347;50.844;4.490;2023-06-22T09:40:46;9.77;;;5.47;;
14520;SDS011;7347;50.844;4.490;2023-06-22T09:43:13;9.40;;;4.67;;
14520;SDS011;7347;50.844;4.490;2023-06-22T09:45:39;9.77;;;5.30;;
14520;SDS011;7347;50.844;4.490;2023-06-22T09:48:06;13.48;;;5.60;;
14520;SDS011;7347;50.844;4.490;2023-06-22T09:50:36;11.07;;;5.83;;
14520;SDS011;7347;50.844;4.490;2023-06-22T09:53:03;8.13;;;4.73;;
14520;SDS011;7347;50.844;4.490;2023-06-22T09:55:30;9.57;;;5.20;;
14520;SDS011;7347;50.844;4.490;2023-06-22T09:57:56;10.68;;;5.10;;
14520;SDS011;7347;50.844;4.490;2023-06-22T10:00:23;10.50;;;5.67;;
14520;SDS011;7347;50.844;4.490;2023-06-22T10:02:51;10.70;;;6.00;;
14520;SDS011;7347;50.844;4.490;2023-06-22T10:05:18;10.10;;;5.60;;
14520;SDS011;7347;50.844;4.490;2023-06-22T10:07:46;10.53;;;6.37;;
14520;SDS011;7347;50.844;4.490;2023-06-22T10:10:13;10.87;;;5.97;;
14520;SDS011;7347;50.844;4.490;2023-06-22T10:12:41;7.77;;;5.87;;
14520;SDS011;7347;50.844;4.490;2023-06-22T10:15:12;10.80;;;6.17;;
14520;SDS011;7347;50.844;4.490;2023-06-22T10:17:39;11.70;;;6.73;;
14520;SDS011;7347;50.844;4.490;2023-06-22T10:20:06;9.67;;;6.20;;
14520;SDS011;7347;50.844;4.490;2023-06-22T10:22:37;13.67;;;6.80;;
14520;SDS011;7347;50.844;4.490;2023-06-22T10:25:07;9.47;;;6.17;;
14520;SDS011;7347;50.844;4.490;2023-06-22T10:27:34;11.33;;;7.30;;
14520;SDS011;7347;50.844;4.490;2023-06-22T10:30:01;11.37;;;7.07;;
14520;SDS011;7347;50.844;4.490;2023-06-22T10:32:30;10.73;;;7.10;;
14520;SDS011;7347;50.844;4.490;2023-06-22T10:34:57;10.90;;;7.27;;
14520;SDS011;7347;50.844;4.490;2023-06-22T10:37:23;11.23;;;7.40;;
14520;SDS011;7347;50.844;4.490;2023-06-22T10:39:50;10.97;;;7.37;;
14520;SDS011;7347;50.844;4.490;2023-06-22T10:42:19;13.40;;;8.60;;
14520;SDS011;7347;50.844;4.490;2023-06-22T10:44:45;15.70;;;9.37;;
14520;SDS011;7347;50.844;4.490;2023-06-22T10:47:12;13.63;;;8.70;;
14520;SDS011;7347;50.844;4.490;2023-06-22T10:49:39;17.00;;;10.23;;
14520;SDS011;7347;50.844;4.490;2023-06-22T10:52:07;15.80;;;8.97;;
14520;SDS011;7347;50.844;4.490;2023-06-22T10:54:35;15.27;;;9.20;;
14520;SDS011;7347;50.844;4.490;2023-06-22T10:57:03;14.87;;;9.27;;
14520;SDS011;7347;50.844;4.490;2023-06-22T10:59:31;20.00;;;11.00;;
14520;SDS011;7347;50.844;4.490;2023-06-22T11:01:58;20.40;;;9.90;;
14520;SDS011;7347;50.844;4.490;2023-06-22T11:04:25;17.30;;;10.60;;
14520;SDS011;7347;50.844;4.490;2023-06-22T11:06:52;20.03;;;11.67;;
14520;SDS011;7347;50.844;4.490;2023-06-22T11:09:18;20.40;;;12.23;;
14520;SDS011;7347;50.844;4.490;2023-06-22T11:11:46;17.70;;;10.87;;
14520;SDS011;7347;50.844;4.490;2023-06-22T11:14:13;18.83;;;11.50;;
14520;SDS011;7347;50.844;4.490;2023-06-22T11:16:41;21.40;;;11.73;;
14520;SDS011;7347;50.844;4.490;2023-06-22T11:19:08;22.87;;;12.23;;
14520;SDS011;7347;50.844;4.490;2023-06-22T11:21:35;20.37;;;12.50;;
14520;SDS011;7347;50.844;4.490;2023-06-22T11:24:02;23.83;;;14.07;;
14520;SDS011;7347;50.844;4.490;2023-06-22T11:26:29;24.20;;;13.70;;
14520;SDS011;7347;50.844;4.490;2023-06-22T11:28:56;24.50;;;13.83;;
14520;SDS011;7347;50.844;4.490;2023-06-22T11:31:23;28.00;;;14.73;;
14520;SDS011;7347;50.844;4.490;2023-06-22T11:33:52;25.93;;;14.43;;
14520;SDS011;7347;50.844;4.490;2023-06-22T11:36:19;25.53;;;14.13;;
14520;SDS011;7347;50.844;4.490;2023-06-22T11:38:46;24.17;;;13.77;;
14520;SDS011;7347;50.844;4.490;2023-06-22T11:41:13;29.90;;;14.70;;
14520;SDS011;7347;50.844;4.490;2023-06-22T11:43:40;24.93;;;14.17;;
14520;SDS011;7347;50.844;4.490;2023-06-22T11:46:07;24.90;;;13.10;;
14520;SDS011;7347;50.844;4.490;2023-06-22T11:48:34;23.93;;;14.27;;
14520;SDS011;7347;50.844;4.490;2023-06-22T11:51:02;29.20;;;14.27;;
14520;SDS011;7347;50.844;4.490;2023-06-22T11:53:31;27.37;;;14.20;;
14520;SDS011;7347;50.844;4.490;2023-06-22T11:55:59;26.90;;;14.00;;
14520;SDS011;7347;50.844;4.490;2023-06-22T11:58:26;25.23;;;13.27;;
14520;SDS011;7347;50.844;4.490;2023-06-22T12:00:53;25.90;;;14.23;;
14520;SDS011;7347;50.844;4.490;2023-06-22T12:03:20;26.10;;;13.40;;
14520;SDS011;7347;50.844;4.490;2023-06-22T12:05:47;23.47;;;13.37;;
14520;SDS011;7347;50.844;4.490;2023-06-22T12:08:16;23.20;;;13.30;;
14520;SDS011;7347;50.844;4.490;2023-06-22T12:10:43;24.90;;;13.40;;
14520;SDS011;7347;50.844;4.490;2023-06-22T12:13:10;23.40;;;12.30;;
14520;SDS011;7347;50.844;4.490;2023-06-22T12:15:37;25.37;;;14.10;;
14520;SDS011;7347;50.844;4.490;2023-06-22T12:18:04;22.60;;;13.40;;
14520;SDS011;7347;50.844;4.490;2023-06-22T12:20:31;23.10;;;12.37;;
14520;SDS011;7347;50.844;4.490;2023-06-22T12:22:58;27.40;;;13.90;;
14520;SDS011;7347;50.844;4.490;2023-06-22T12:25:26;26.17;;;14.37;;
14520;SDS011;7347;50.844;4.490;2023-06-22T12:27:53;24.63;;;13.60;;
14520;SDS011;7347;50.844;4.490;2023-06-22T12:30:20;27.07;;;14.33;;
14520;SDS011;7347;50.844;4.490;2023-06-22T12:32:47;24.90;;;14.10;;
14520;SDS011;7347;50.844;4.490;2023-06-22T12:35:14;27.20;;;13.27;;
14520;SDS011;7347;50.844;4.490;2023-06-22T12:37:41;30.83;;;14.70;;
14520;SDS011;7347;50.844;4.490;2023-06-22T12:40:09;26.43;;;13.27;;
14520;SDS011;7347;50.844;4.490;2023-06-22T12:42:38;25.77;;;13.97;;
14520;SDS011;7347;50.844;4.490;2023-06-22T12:45:05;24.47;;;14.47;;
14520;SDS011;7347;50.844;4.490;2023-06-22T12:47:32;30.80;;;14.63;;
14520;SDS011;7347;50.844;4.490;2023-06-22T12:49:59;34.33;;;15.00;;
14520;SDS011;7347;50.844;4.490;2023-06-22T12:52:26;30.60;;;15.20;;
14520;SDS011;7347;50.844;4.490;2023-06-22T12:54:53;32.97;;;16.13;;
14520;SDS011;7347;50.844;4.490;2023-06-22T12:57:20;27.93;;;14.27;;
14520;SDS011;7347;50.844;4.490;2023-06-22T12:59:48;28.70;;;15.57;;
14520;SDS011;7347;50.844;4.490;2023-06-22T13:02:15;20.93;;;10.63;;
14520;SDS011;7347;50.844;4.490;2023-06-22T13:04:42;32.00;;;15.33;;
14520;SDS011;7347;50.844;4.490;2023-06-22T13:07:09;30.73;;;15.00;;
14520;SDS011;7347;50.844;4.490;2023-06-22T13:09:36;29.80;;;14.13;;
14520;SDS011;7347;50.844;4.490;2023-06-22T13:12:03;29.53;;;15.03;;
14520;SDS011;7347;50.844;4.490;2023-06-22T13:14:30;30.80;;;15.30;;
14520;SDS011;7347;50.844;4.490;2023-06-22T13:16:58;32.93;;;16.33;;
14520;SDS011;7347;50.844;4.490;2023-06-22T13:19:25;34.13;;;17.27;;
14520;SDS011;7347;50.844;4.490;2023-06-22T13:21:53;34.87;;;16.47;;
14520;SDS011;7347;50.844;4.490;2023-06-22T13:24:20;33.13;;;17.40;;
14520;SDS011;7347;50.844;4.490;2023-06-22T13:26:47;30.43;;;15.83;;
14520;SDS011;7347;50.844;4.490;2023-06-22T13:29:14;27.80;;;15.03;;
14520;SDS011;7347;50.844;4.490;2023-06-22T13:31:41;32.73;;;17.13;;
14520;SDS011;7347;50.844;4.490;2023-06-22T13:34:09;34.00;;;16.63;;
14520;SDS011;7347;50.844;4.490;2023-06-22T13:36:36;35.43;;;17.30;;
14520;SDS011;7347;50.844;4.490;2023-06-22T13:39:03;36.50;;;17.17;;
14520;SDS011;7347;50.844;4.490;2023-06-22T13:41:30;31.70;;;17.07;;
14520;SDS011;7347;50.844;4.490;2023-06-22T13:43:57;32.27;;;16.70;;
14520;SDS011;7347;50.844;4.490;2023-06-22T13:46:24;30.00;;;15.83;;
14520;SDS011;7347;50.844;4.490;2023-06-22T13:48:58;34.97;;;17.60;;
14520;SDS011;7347;50.844;4.490;2023-06-22T13:51:26;30.63;;;16.67;;
14520;SDS011;7347;50.844;4.490;2023-06-22T13:53:53;34.87;;;16.60;;
14520;SDS011;7347;50.844;4.490;2023-06-22T13:56:19;32.03;;;17.33;;
14520;SDS011;7347;50.844;4.490;2023-06-22T13:58:46;32.23;;;16.53;;
14520;SDS011;7347;50.844;4.490;2023-06-22T14:01:13;30.70;;;15.83;;
14520;SDS011;7347;50.844;4.490;2023-06-22T14:03:40;30.43;;;15.97;;
14520;SDS011;7347;50.844;4.490;2023-06-22T14:06:07;32.70;;;16.70;;
14520;SDS011;7347;50.844;4.490;2023-06-22T14:08:37;37.10;;;17.50;;
14520;SDS011;7347;50.844;4.490;2023-06-22T14:11:04;33.77;;;17.37;;
14520;SDS011;7347;50.844;4.490;2023-06-22T14:13:30;34.00;;;16.93;;
14520;SDS011;7347;50.844;4.490;2023-06-22T14:15:57;33.33;;;17.03;;
14520;SDS011;7347;50.844;4.490;2023-06-22T14:18:24;34.50;;;17.97;;
14520;SDS011;7347;50.844;4.490;2023-06-22T14:20:51;34.57;;;17.60;;
14520;SDS011;7347;50.844;4.490;2023-06-22T14:23:18;33.20;;;17.00;;
14520;SDS011;7347;50.844;4.490;2023-06-22T14:25:46;31.63;;;16.87;;
14520;SDS011;7347;50.844;4.490;2023-06-22T14:28:13;33.20;;;17.37;;
14520;SDS011;7347;50.844;4.490;2023-06-22T14:30:41;32.97;;;18.03;;
14520;SDS011;7347;50.844;4.490;2023-06-22T14:33:08;35.07;;;17.50;;
14520;SDS011;7347;50.844;4.490;2023-06-22T14:35:34;32.33;;;17.67;;
14520;SDS011;7347;50.844;4.490;2023-06-22T14:38:01;31.97;;;17.03;;
14520;SDS011;7347;50.844;4.490;2023-06-22T14:40:28;36.60;;;17.23;;
14520;SDS011;7347;50.844;4.490;2023-06-22T14:42:56;33.67;;;17.40;;
14520;SDS011;7347;50.844;4.490;2023-06-22T14:45:23;34.27;;;17.50;;
14520;SDS011;7347;50.844;4.490;2023-06-22T14:47:50;38.30;;;18.83;;
14520;SDS011;7347;50.844;4.490;2023-06-22T14:50:17;39.20;;;21.00;;
14520;SDS011;7347;50.844;4.490;2023-06-22T14:52:44;38.10;;;17.67;;
14520;SDS011;7347;50.844;4.490;2023-06-22T14:55:11;39.17;;;18.73;;
14520;SDS011;7347;50.844;4.490;2023-06-22T14:57:38;36.97;;;17.73;;
14520;SDS011;7347;50.844;4.490;2023-06-22T15:00:07;35.53;;;18.50;;
14520;SDS011;7347;50.844;4.490;2023-06-22T15:02:34;37.40;;;19.80;;
14520;SDS011;7347;50.844;4.490;2023-06-22T15:05:01;38.57;;;19.90;;
14520;SDS011;7347;50.844;4.490;2023-06-22T15:07:28;37.37;;;19.33;;
14520;SDS011;7347;50.844;4.490;2023-06-22T15:09:55;39.93;;;18.43;;
14520;SDS011;7347;50.844;4.490;2023-06-22T15:12:22;38.10;;;20.40;;
14520;SDS011;7347;50.844;4.490;2023-06-22T15:14:49;40.83;;;20.43;;
14520;SDS011;7347;50.844;4.490;2023-06-22T15:17:17;41.57;;;19.87;;
14520;SDS011;7347;50.844;4.490;2023-06-22T15:19:43;43.03;;;21.07;;
14520;SDS011;7347;50.844;4.490;2023-06-22T15:22:10;43.00;;;20.53;;
14520;SDS011;7347;50.844;4.490;2023-06-22T15:24:38;41.93;;;20.30;;
14520;SDS011;7347;50.844;4.490;2023-06-22T15:27:05;43.07;;;21.60;;
14520;SDS011;7347;50.844;4.490;2023-06-22T15:29:32;41.23;;;19.70;;
14520;SDS011;7347;50.844;4.490;2023-06-22T15:31:59;43.83;;;20.40;;
14520;SDS011;7347;50.844;4.490;2023-06-22T15:34:27;41.03;;;21.13;;
14520;SDS011;7347;50.844;4.490;2023-06-22T15:36:54;37.53;;;18.75;;
14520;SDS011;7347;50.844;4.490;2023-06-22T15:39:21;43.33;;;20.60;;
14520;SDS011;7347;50.844;4.490;2023-06-22T15:41:50;46.10;;;19.77;;
14520;SDS011;7347;50.844;4.490;2023-06-22T15:44:19;43.73;;;20.00;;
14520;SDS011;7347;50.844;4.490;2023-06-22T15:46:45;40.38;;;20.27;;
14520;SDS011;7347;50.844;4.490;2023-06-22T15:49:14;43.13;;;21.02;;
14520;SDS011;7347;50.844;4.490;2023-06-22T15:51:42;40.67;;;20.53;;
14520;SDS011;7347;50.844;4.490;2023-06-22T15:54:09;38.23;;;20.40;;
14520;SDS011;7347;50.844;4.490;2023-06-22T15:56:37;37.37;;;19.73;;
14520;SDS011;7347;50.844;4.490;2023-06-22T15:59:03;39.33;;;20.13;;
14520;SDS011;7347;50.844;4.490;2023-06-22T16:01:30;45.15;;;20.85;;
14520;SDS011;7347;50.844;4.490;2023-06-22T16:03:57;39.40;;;19.97;;
14520;SDS011;7347;50.844;4.490;2023-06-22T16:06:24;34.80;;;19.17;;
14520;SDS011;7347;50.844;4.490;2023-06-22T16:08:52;38.58;;;20.13;;
14520;SDS011;7347;50.844;4.490;2023-06-22T16:11:19;47.13;;;20.75;;
14520;SDS011;7347;50.844;4.490;2023-06-22T16:13:46;36.25;;;20.67;;
14520;SDS011;7347;50.844;4.490;2023-06-22T16:16:13;37.10;;;21.03;;
14520;SDS011;7347;50.844;4.490;2023-06-22T16:18:41;41.95;;;21.85;;
14520;SDS011;7347;50.844;4.490;2023-06-22T16:21:08;40.58;;;20.67;;
14520;SDS011;7347;50.844;4.490;2023-06-22T16:23:35;39.00;;;20.55;;
14520;SDS011;7347;50.844;4.490;2023-06-22T16:26:03;42.95;;;20.55;;
14520;SDS011;7347;50.844;4.490;2023-06-22T16:28:30;34.78;;;19.33;;
14520;SDS011;7347;50.844;4.490;2023-06-22T16:30:57;48.65;;;20.98;;
14520;SDS011;7347;50.844;4.490;2023-06-22T16:33:23;40.42;;;20.90;;
14520;SDS011;7347;50.844;4.490;2023-06-22T16:35:51;41.95;;;21.05;;
14520;SDS011;7347;50.844;4.490;2023-06-22T16:38:17;36.28;;;19.38;;
14520;SDS011;7347;50.844;4.490;2023-06-22T16:40:44;36.75;;;21.58;;
14520;SDS011;7347;50.844;4.490;2023-06-22T16:43:13;38.17;;;20.92;;
14520;SDS011;7347;50.844;4.490;2023-06-22T16:45:40;41.33;;;22.42;;
14520;SDS011;7347;50.844;4.490;2023-06-22T16:48:06;38.22;;;21.77;;
14520;SDS011;7347;50.844;4.490;2023-06-22T16:50:34;42.00;;;21.58;;
14520;SDS011;7347;50.844;4.490;2023-06-22T16:53:01;44.13;;;22.65;;
14520;SDS011;7347;50.844;4.490;2023-06-22T16:55:28;38.80;;;21.90;;
14520;SDS011;7347;50.844;4.490;2023-06-22T16:57:57;43.33;;;22.90;;
14520;SDS011;7347;50.844;4.490;2023-06-22T17:00:27;39.60;;;22.67;;
14520;SDS011;7347;50.844;4.490;2023-06-22T17:02:54;42.63;;;22.42;;
14520;SDS011;7347;50.844;4.490;2023-06-22T17:05:25;39.08;;;21.38;;
14520;SDS011;7347;50.844;4.490;2023-06-22T17:07:53;39.55;;;22.63;;
14520;SDS011;7347;50.844;4.490;2023-06-22T17:10:23;36.05;;;19.70;;
14520;SDS011;7347;50.844;4.490;2023-06-22T17:12:50;32.63;;;19.30;;
14520;SDS011;7347;50.844;4.490;2023-06-22T17:15:17;33.80;;;19.20;;
14520;SDS011;7347;50.844;4.490;2023-06-22T17:17:47;33.72;;;18.45;;
14520;SDS011;7347;50.844;4.490;2023-06-22T17:20:15;36.40;;;17.48;;
14520;SDS011;7347;50.844;4.490;2023-06-22T17:22:43;33.35;;;18.27;;
14520;SDS011;7347;50.844;4.490;2023-06-22T17:25:10;35.28;;;17.25;;
14520;SDS011;7347;50.844;4.490;2023-06-22T17:27:40;30.17;;;17.15;;
14520;SDS011;7347;50.844;4.490;2023-06-22T17:30:07;32.55;;;16.90;;
14520;SDS011;7347;50.844;4.490;2023-06-22T17:32:35;30.70;;;16.98;;
14520;SDS011;7347;50.844;4.490;2023-06-22T17:35:04;30.33;;;16.48;;
14520;SDS011;7347;50.844;4.490;2023-06-22T17:37:46;27.52;;;15.98;;
14520;SDS011;7347;50.844;4.490;2023-06-22T17:40:14;27.63;;;16.23;;
14520;SDS011;7347;50.844;4.490;2023-06-22T17:42:42;26.42;;;15.43;;
14520;SDS011;7347;50.844;4.490;2023-06-22T17:45:14;28.63;;;16.02;;
14520;SDS011;7347;50.844;4.490;2023-06-22T17:47:42;27.92;;;14.90;;
14520;SDS011;7347;50.844;4.490;2023-06-22T17:50:14;25.88;;;14.63;;
14520;SDS011;7347;50.844;4.490;2023-06-22T17:52:41;25.52;;;14.55;;
14520;SDS011;7347;50.844;4.490;2023-06-22T17:55:14;26.70;;;14.55;;
14520;SDS011;7347;50.844;4.490;2023-06-22T17:57:41;24.83;;;14.70;;
14520;SDS011;7347;50.844;4.490;2023-06-22T18:00:11;23.38;;;15.18;;
14520;SDS011;7347;50.844;4.490;2023-06-22T18:02:39;26.98;;;15.07;;
14520;SDS011;7347;50.844;4.490;2023-06-22T18:05:07;24.98;;;15.23;;
14520;SDS011;7347;50.844;4.490;2023-06-22T18:07:36;24.50;;;14.73;;
14520;SDS011;7347;50.844;4.490;2023-06-22T18:10:04;22.25;;;14.07;;
14520;SDS011;7347;50.844;4.490;2023-06-22T18:12:33;21.67;;;14.13;;
14520;SDS011;7347;50.844;4.490;2023-06-22T18:15:01;24.65;;;14.13;;
14520;SDS011;7347;50.844;4.490;2023-06-22T18:17:28;24.60;;;15.02;;
14520;SDS011;7347;50.844;4.490;2023-06-22T18:19:55;22.70;;;14.20;;
14520;SDS011;7347;50.844;4.490;2023-06-22T18:22:24;21.77;;;13.48;;
14520;SDS011;7347;50.844;4.490;2023-06-22T18:24:53;21.20;;;14.00;;
14520;SDS011;7347;50.844;4.490;2023-06-22T18:27:22;23.23;;;13.68;;
14520;SDS011;7347;50.844;4.490;2023-06-22T18:29:50;22.73;;;14.45;;
14520;SDS011;7347;50.844;4.490;2023-06-22T18:32:17;21.50;;;14.10;;
14520;SDS011;7347;50.844;4.490;2023-06-22T18:34:44;23.13;;;13.80;;
14520;SDS011;7347;50.844;4.490;2023-06-22T18:37:11;23.95;;;13.45;;
14520;SDS011;7347;50.844;4.490;2023-06-22T18:39:40;20.70;;;13.55;;
14520;SDS011;7347;50.844;4.490;2023-06-22T18:42:12;21.20;;;13.23;;
14520;SDS011;7347;50.844;4.490;2023-06-22T18:44:41;21.48;;;12.90;;
14520;SDS011;7347;50.844;4.490;2023-06-22T18:47:09;20.20;;;12.52;;
14520;SDS011;7347;50.844;4.490;2023-06-22T18:49:44;22.38;;;13.18;;
14520;SDS011;7347;50.844;4.490;2023-06-22T18:52:14;20.83;;;13.02;;
14520;SDS011;7347;50.844;4.490;2023-06-22T18:54:42;20.92;;;12.82;;
14520;SDS011;7347;50.844;4.490;2023-06-22T18:57:15;21.65;;;13.07;;
14520;SDS011;7347;50.844;4.490;2023-06-22T18:59:46;18.77;;;12.50;;
14520;SDS011;7347;50.844;4.490;2023-06-22T19:02:16;18.48;;;12.77;;
14520;SDS011;7347;50.844;4.490;2023-06-22T19:05:06;19.27;;;12.27;;
14520;SDS011;7347;50.844;4.490;2023-06-22T19:10:24;17.88;;;12.38;;
14520;SDS011;7347;50.844;4.490;2023-06-22T19:12:52;18.38;;;12.35;;
14520;SDS011;7347;50.844;4.490;2023-06-22T19:15:20;19.75;;;11.93;;
14520;SDS011;7347;50.844;4.490;2023-06-22T19:17:47;20.05;;;12.65;;
14520;SDS011;7347;50.844;4.490;2023-06-22T19:20:17;23.75;;;11.75;;
14520;SDS011;7347;50.844;4.490;2023-06-22T19:22:52;16.15;;;11.57;;
14520;SDS011;7347;50.844;4.490;2023-06-22T19:25:21;17.27;;;11.32;;
14520;SDS011;7347;50.844;4.490;2023-06-22T19:27:49;17.23;;;11.50;;
14520;SDS011;7347;50.844;4.490;2023-06-22T19:30:19;15.27;;;11.32;;
14520;SDS011;7347;50.844;4.490;2023-06-22T19:32:46;16.85;;;10.70;;
14520;SDS011;7347;50.844;4.490;2023-06-22T19:35:14;15.70;;;10.90;;
14520;SDS011;7347;50.844;4.490;2023-06-22T19:37:42;17.83;;;10.45;;
14520;SDS011;7347;50.844;4.490;2023-06-22T19:40:10;14.35;;;10.02;;
14520;SDS011;7347;50.844;4.490;2023-06-22T19:42:38;13.80;;;10.18;;
14520;SDS011;7347;50.844;4.490;2023-06-22T19:45:06;15.40;;;10.13;;
14520;SDS011;7347;50.844;4.490;2023-06-22T19:47:35;15.18;;;9.85;;
14520;SDS011;7347;50.844;4.490;2023-06-22T19:50:02;17.55;;;10.93;;
14520;SDS011;7347;50.844;4.490;2023-06-22T19:52:34;12.68;;;9.27;;
14520;SDS011;7347;50.844;4.490;2023-06-22T19:55:02;14.18;;;9.57;;
14520;SDS011;7347;50.844;4.490;2023-06-22T19:57:32;18.45;;;10.27;;
14520;SDS011;7347;50.844;4.490;2023-06-22T20:00:00;19.10;;;12.70;;
14520;SDS011;7347;50.844;4.490;2023-06-22T20:02:32;22.52;;;13.63;;
14520;SDS011;7347;50.844;4.490;2023-06-22T20:05:04;19.27;;;13.02;;
14520;SDS011;7347;50.844;4.490;2023-06-22T20:07:34;25.27;;;15.18;;
14520;SDS011;7347;50.844;4.490;2023-06-22T20:10:09;24.67;;;17.05;;
14520;SDS011;7347;50.844;4.490;2023-06-22T20:12:38;29.88;;;16.85;;
14520;SDS011;7347;50.844;4.490;2023-06-22T20:15:18;27.55;;;17.33;;
14520;SDS011;7347;50.844;4.490;2023-06-22T20:18:00;34.00;;;18.98;;
14520;SDS011;7347;50.844;4.490;2023-06-22T20:20:30;33.95;;;19.70;;
14520;SDS011;7347;50.844;4.490;2023-06-22T20:23:01;34.92;;;20.40;;
14520;SDS011;7347;50.844;4.490;2023-06-22T20:25:29;41.80;;;23.00;;
14520;SDS011;7347;50.844;4.490;2023-06-22T20:28:03;44.63;;;25.05;;
14520;SDS011;7347;50.844;4.490;2023-06-22T20:30:31;43.50;;;23.92;;
14520;SDS011;7347;50.844;4.490;2023-06-22T20:32:59;45.60;;;24.10;;
14520;SDS011;7347;50.844;4.490;2023-06-22T20:35:27;43.67;;;24.98;;
14520;SDS011;7347;50.844;4.490;2023-06-22T20:37:55;45.58;;;25.17;;
14520;SDS011;7347;50.844;4.490;2023-06-22T20:40:23;48.88;;;24.63;;
14520;SDS011;7347;50.844;4.490;2023-06-22T20:42:53;43.88;;;24.20;;
14520;SDS011;7347;50.844;4.490;2023-06-22T20:45:21;46.50;;;24.67;;
14520;SDS011;7347;50.844;4.490;2023-06-22T20:47:49;47.05;;;24.45;;
14520;SDS011;7347;50.844;4.490;2023-06-22T20:50:17;44.88;;;22.73;;
14520;SDS011;7347;50.844;4.490;2023-06-22T20:52:45;38.78;;;22.92;;
14520;SDS011;7347;50.844;4.490;2023-06-22T20:55:13;41.90;;;24.08;;
14520;SDS011;7347;50.844;4.490;2023-06-22T20:57:40;40.90;;;23.52;;
14520;SDS011;7347;50.844;4.490;2023-06-22T21:00:09;40.80;;;22.48;;
14520;SDS011;7347;50.844;4.490;2023-06-22T21:02:37;43.30;;;22.58;;
14520;SDS011;7347;50.844;4.490;2023-06-22T21:05:05;39.03;;;21.73;;
14520;SDS011;7347;50.844;4.490;2023-06-22T21:07:32;39.88;;;21.02;;
14520;SDS011;7347;50.844;4.490;2023-06-22T21:10:00;38.40;;;21.35;;
14520;SDS011;7347;50.844;4.490;2023-06-22T21:12:27;41.65;;;21.10;;
14520;SDS011;7347;50.844;4.490;2023-06-22T21:14:54;35.90;;;19.88;;
14520;SDS011;7347;50.844;4.490;2023-06-22T21:17:21;40.35;;;21.25;;
14520;SDS011;7347;50.844;4.490;2023-06-22T21:19:49;36.88;;;20.23;;
14520;SDS011;7347;50.844;4.490;2023-06-22T21:22:16;38.92;;;19.83;;
14520;SDS011;7347;50.844;4.490;2023-06-22T21:24:44;39.15;;;19.98;;
14520;SDS011;7347;50.844;4.490;2023-06-22T21:27:12;34.57;;;19.03;;
14520;SDS011;7347;50.844;4.490;2023-06-22T21:29:39;32.17;;;18.70;;
14520;SDS011;7347;50.844;4.490;2023-06-22T21:32:06;34.17;;;18.77;;
14520;SDS011;7347;50.844;4.490;2023-06-22T21:34:34;33.97;;;18.10;;
14520;SDS011;7347;50.844;4.490;2023-06-22T21:37:00;42.50;;;18.87;;
14520;SDS011;7347;50.844;4.490;2023-06-22T21:39:27;36.17;;;19.13;;
